Time;durP1;ratioP1;P1;durP2;ratioP2;P2;SDS_P1;SDS_P2;PMS_P1;PMS_P2;Temp;Humidity;BMP_temperature;BMP_pressure;BME280_temperature;BME280_humidity;BME280_pressure;Samples;Min_cycle;Max_cycle;Signal;HPM_P1;HPM_P2
2022/12/07 00:00:52;;;;;;;5.30;4.00;;;3.00;99.90;;;;;;5006024;28;20026;-33
2022/12/07 00:03:18;;;;;;;7.20;4.25;;;3.00;99.90;;;;;;5003965;28;20634;-34
2022/12/07 00:05:43;;;;;;;6.82;4.30;;;3.00;99.90;;;;;;5004302;28;20034;-33
2022/12/07 00:08:09;;;;;;;6.32;3.90;;;3.00;99.90;;;;;;5004586;28;20136;-34
2022/12/07 00:10:34;;;;;;;7.68;4.00;;;3.00;99.90;;;;;;5006752;28;20032;-33
2022/12/07 00:13:00;;;;;;;6.22;4.15;;;3.00;99.90;;;;;;5004567;28;20034;-34
2022/12/07 00:15:26;;;;;;;6.78;4.22;;;3.00;99.90;;;;;;5007639;28;20032;-34
2022/12/07 00:17:52;;;;;;;7.00;4.32;;;3.00;99.90;;;;;;5006689;28;20521;-34
2022/12/07 00:20:18;;;;;;;4.68;3.30;;;2.90;99.90;;;;;;5006696;28;20033;-32
2022/12/07 00:22:43;;;;;;;5.95;4.35;;;2.90;99.90;;;;;;5003648;28;20030;-33
2022/12/07 00:25:09;;;;;;;5.45;4.10;;;2.90;99.90;;;;;;5002800;28;20045;-34
2022/12/07 00:27:34;;;;;;;6.10;4.18;;;2.90;99.90;;;;;;5002303;28;20298;-34
2022/12/07 00:30:00;;;;;;;8.10;4.85;;;2.90;99.90;;;;;;5002025;28;20045;-35
2022/12/07 00:32:26;;;;;;;5.15;4.40;;;2.90;99.90;;;;;;5002882;28;20052;-31
2022/12/07 00:34:51;;;;;;;5.20;3.85;;;2.90;99.90;;;;;;5005624;28;20108;-35
2022/12/07 00:37:17;;;;;;;6.90;5.07;;;2.90;99.90;;;;;;5002956;28;20140;-35
2022/12/07 00:39:43;;;;;;;6.10;4.20;;;2.80;99.90;;;;;;5003377;28;20099;-35
2022/12/07 00:42:08;;;;;;;6.57;4.32;;;2.80;99.90;;;;;;5006230;28;20062;-33
2022/12/07 00:44:34;;;;;;;11.07;5.22;;;2.80;99.90;;;;;;5001625;28;20064;-34
2022/12/07 00:46:59;;;;;;;5.22;4.20;;;2.80;99.90;;;;;;5006688;28;20034;-34
2022/12/07 00:49:25;;;;;;;6.72;3.70;;;2.90;99.90;;;;;;5005139;28;20036;-35
2022/12/07 00:51:50;;;;;;;5.15;3.85;;;2.80;99.90;;;;;;5004908;28;20118;-34
2022/12/07 00:54:16;;;;;;;9.00;4.63;;;2.70;99.90;;;;;;5003803;28;20084;-35
2022/12/07 00:56:42;;;;;;;6.38;4.38;;;2.80;99.90;;;;;;5004101;28;20481;-34
2022/12/07 00:59:13;;;;;;;5.97;4.18;;;2.80;99.90;;;;;;5004238;28;20065;-34
2022/12/07 01:01:39;;;;;;;8.07;4.25;;;2.70;99.90;;;;;;5002915;28;20490;-34
2022/12/07 01:04:05;;;;;;;6.60;4.22;;;2.80;99.90;;;;;;5004274;28;20263;-35
2022/12/07 01:06:31;;;;;;;8.23;5.05;;;2.80;99.90;;;;;;5002938;28;20053;-35
2022/12/07 01:08:57;;;;;;;6.15;4.10;;;2.70;99.90;;;;;;5001714;28;20072;-28
2022/12/07 01:11:25;;;;;;;5.82;4.40;;;2.70;99.90;;;;;;5002454;28;20076;-30
2022/12/07 01:13:52;;;;;;;5.90;4.85;;;2.70;99.90;;;;;;5002028;28;20026;-34
2022/12/07 01:16:19;;;;;;;6.72;4.20;;;2.70;99.90;;;;;;5003655;28;20954;-34
2022/12/07 01:18:48;;;;;;;5.68;4.20;;;2.70;99.90;;;;;;5005404;28;20038;-34
2022/12/07 01:21:16;;;;;;;6.20;4.07;;;2.70;99.90;;;;;;5001986;28;20065;-33
2022/12/07 01:23:42;;;;;;;;;;;2.70;99.90;;;;;;5002994;28;20041;-33
2022/12/07 01:26:12;;;;;;;5.75;4.90;;;2.70;99.90;;;;;;5004856;28;19913;-34
2022/12/07 01:28:38;;;;;;;6.03;3.90;;;2.80;99.90;;;;;;5004128;28;20056;-30
2022/12/07 01:31:15;;;;;;;4.60;3.92;;;2.80;99.90;;;;;;5006094;28;20467;-33
2022/12/07 01:33:44;;;;;;;7.05;4.28;;;2.70;99.90;;;;;;5000816;28;20034;-34
2022/12/07 01:36:24;;;;;;;7.88;4.47;;;2.80;99.90;;;;;;5005288;28;20033;-34
2022/12/07 01:38:56;;;;;;;5.13;4.10;;;2.80;99.90;;;;;;5003436;28;20037;-34
2022/12/07 01:41:22;;;;;;;7.30;4.90;;;2.70;99.90;;;;;;5002887;28;20502;-32
2022/12/07 01:44:08;;;;;;;6.30;4.30;;;2.70;99.90;;;;;;5006309;28;20773;-35
2022/12/07 01:46:34;;;;;;;6.55;3.90;;;2.70;99.90;;;;;;5003392;28;20050;-34
2022/12/07 01:49:01;;;;;;;6.25;4.75;;;2.60;99.90;;;;;;5015332;28;20080;-28
2022/12/07 01:51:28;;;;;;;7.20;4.90;;;2.60;99.90;;;;;;5005581;28;20029;-34
2022/12/07 01:53:54;;;;;;;6.68;4.20;;;2.60;99.90;;;;;;5005817;28;20488;-34
2022/12/07 01:56:26;;;;;;;6.78;4.90;;;2.60;99.90;;;;;;5019313;28;20321;-33
2022/12/07 01:58:54;;;;;;;5.78;4.22;;;2.70;99.90;;;;;;5004884;28;20042;-35
2022/12/07 02:01:20;;;;;;;7.20;4.47;;;2.70;99.90;;;;;;5008498;28;20045;-32
2022/12/07 02:03:46;;;;;;;5.38;3.90;;;2.70;99.90;;;;;;5006348;28;20038;-31
2022/12/07 02:06:18;;;;;;;5.78;3.53;;;2.70;99.90;;;;;;5006157;28;20041;-35
2022/12/07 02:08:44;;;;;;;5.95;4.20;;;2.70;99.90;;;;;;5007508;28;20026;-33
2022/12/07 02:11:10;;;;;;;6.75;4.35;;;2.70;99.90;;;;;;5006683;28;20037;-34
2022/12/07 02:13:39;;;;;;;8.73;4.60;;;2.70;99.90;;;;;;5009122;28;20056;-31
2022/12/07 02:16:08;;;;;;;8.27;4.68;;;2.80;99.90;;;;;;5021332;28;20038;-34
2022/12/07 02:18:49;;;;;;;7.18;4.43;;;2.80;99.90;;;;;;5006346;28;20033;-35
2022/12/07 02:21:23;;;;;;;3.88;3.42;;;2.80;99.90;;;;;;5005047;28;20042;-34
2022/12/07 02:24:29;;;;;;;11.20;4.28;;;2.70;99.90;;;;;;5007232;28;20375;-32
2022/12/07 02:27:06;;;;;;;5.75;4.13;;;2.70;99.90;;;;;;4991765;28;20057;-33
2022/12/07 02:29:46;;;;;;;5.88;4.00;;;2.70;99.90;;;;;;5008429;28;20038;-34
2022/12/07 02:32:27;;;;;;;4.82;3.42;;;2.70;99.90;;;;;;5003386;28;20056;-33
2022/12/07 02:35:02;;;;;;;5.47;3.67;;;2.70;99.90;;;;;;5009222;28;20337;-33
2022/12/07 02:37:47;;;;;;;6.90;3.65;;;2.60;99.90;;;;;;5007082;28;20325;-32
2022/12/07 02:40:34;;;;;;;6.18;3.92;;;2.60;99.90;;;;;;5004734;28;20092;-34
2022/12/07 02:43:08;;;;;;;7.00;4.80;;;2.60;99.90;;;;;;5003685;28;20145;-34
2022/12/07 02:45:38;;;;;;;6.85;4.78;;;2.60;99.90;;;;;;5007017;28;20058;-33
2022/12/07 02:48:06;;;;;;;5.78;3.90;;;2.60;99.90;;;;;;5007190;28;20068;-35
2022/12/07 02:50:32;;;;;;;;;;;2.60;99.90;;;;;;5003114;28;20064;-32
2022/12/07 02:52:57;;;;;;;5.10;4.00;;;2.60;99.90;;;;;;5007124;28;19953;-35
2022/12/07 02:55:31;;;;;;;7.32;3.97;;;2.70;99.90;;;;;;5007575;28;20022;-35
2022/12/07 02:58:22;;;;;;;6.25;4.45;;;2.60;99.90;;;;;;5005979;28;20033;-35
2022/12/07 03:01:24;;;;;;;5.45;3.40;;;2.60;99.90;;;;;;5002671;28;20026;-35
2022/12/07 03:04:07;;;;;;;7.00;3.85;;;2.60;99.90;;;;;;4976071;28;20034;-35
2022/12/07 03:06:40;;;;;;;7.72;4.25;;;2.50;99.90;;;;;;5004776;28;20042;-33
2022/12/07 03:09:12;;;;;;;5.35;4.10;;;2.50;99.90;;;;;;5003667;28;20041;-31
2022/12/07 03:12:05;;;;;;;5.38;3.85;;;2.40;99.90;;;;;;5005820;28;20022;-34
2022/12/07 03:14:37;;;;;;;7.13;4.75;;;2.40;99.90;;;;;;5005987;28;20041;-35
2022/12/07 03:17:32;;;;;;;4.88;3.80;;;2.50;99.90;;;;;;5007143;28;20072;-35
2022/12/07 03:20:02;;;;;;;5.68;4.50;;;2.50;99.90;;;;;;5005175;28;20088;-35
2022/12/07 03:22:31;;;;;;;5.68;4.13;;;2.50;99.90;;;;;;5006839;28;20505;-34
2022/12/07 03:25:05;;;;;;;8.18;4.85;;;2.50;99.90;;;;;;5006182;28;20116;-33
2022/12/07 03:27:36;;;;;;;6.13;5.20;;;2.50;99.90;;;;;;5005180;28;20026;-33
2022/12/07 03:30:07;;;;;;;6.82;4.60;;;2.50;99.90;;;;;;5007942;28;20527;-34
2022/12/07 03:32:56;;;;;;;6.63;4.30;;;2.50;99.90;;;;;;5001178;28;20117;-35
2022/12/07 03:35:42;;;;;;;5.43;4.25;;;2.40;99.90;;;;;;5002616;28;20075;-35
2022/12/07 03:38:16;;;;;;;7.15;4.78;;;2.30;99.90;;;;;;5004739;28;20546;-35
2022/12/07 03:40:45;;;;;;;7.13;4.03;;;2.30;99.90;;;;;;5005553;28;20076;-35
2022/12/07 03:43:12;;;;;;;7.95;4.53;;;2.30;99.90;;;;;;5005793;28;20068;-36
2022/12/07 03:45:41;;;;;;;5.38;4.10;;;2.30;99.90;;;;;;5003182;28;20061;-35
2022/12/07 03:48:38;;;;;;;4.85;3.53;;;2.30;99.90;;;;;;5002261;28;20036;-34
2022/12/07 03:51:30;;;;;;;5.50;4.47;;;2.20;99.90;;;;;;4996331;28;20042;-32
2022/12/07 03:54:34;;;;;;;6.22;4.53;;;2.30;99.90;;;;;;5004094;28;20283;-34
2022/12/07 03:57:02;;;;;;;6.57;4.47;;;2.30;99.90;;;;;;5000734;28;20037;-35
2022/12/07 03:59:29;;;;;;;6.80;4.93;;;2.30;99.90;;;;;;5002228;28;20037;-35
2022/12/07 04:02:01;;;;;;;6.07;4.28;;;2.40;99.90;;;;;;5004732;28;20041;-34
2022/12/07 04:04:27;;;;;;;5.28;4.18;;;2.40;99.90;;;;;;5004056;28;20030;-33
2022/12/07 04:06:53;;;;;;;6.97;4.97;;;2.40;99.90;;;;;;5002164;28;20046;-34
2022/12/07 04:09:18;;;;;;;6.72;4.88;;;2.40;99.90;;;;;;5005397;28;20436;-33
2022/12/07 04:11:44;;;;;;;8.75;4.72;;;2.40;99.90;;;;;;5005218;28;20029;-34
2022/12/07 04:14:19;;;;;;;9.18;5.72;;;2.50;99.90;;;;;;5005907;28;20499;-34
2022/12/07 04:16:52;;;;;;;6.28;4.38;;;2.60;99.90;;;;;;5002869;28;20119;-34
2022/12/07 04:19:20;;;;;;;5.63;4.25;;;2.50;99.90;;;;;;5003957;28;20042;-33
2022/12/07 04:21:46;;;;;;;6.25;5.05;;;2.60;99.90;;;;;;5001930;28;20033;-30
2022/12/07 04:24:14;;;;;;;6.40;4.20;;;2.60;99.90;;;;;;5005227;28;20446;-34
2022/12/07 04:26:41;;;;;;;7.45;4.93;;;2.60;99.90;;;;;;5002753;28;20065;-35
2022/12/07 04:29:07;;;;;;;7.28;4.90;;;2.60;99.90;;;;;;5005141;28;20403;-33
2022/12/07 04:31:33;;;;;;;6.53;4.50;;;2.60;99.90;;;;;;5002492;28;20391;-35
2022/12/07 04:33:58;;;;;;;7.95;4.70;;;2.60;99.90;;;;;;5001958;28;20084;-33
2022/12/07 04:36:24;;;;;;;7.88;5.30;;;2.60;99.90;;;;;;5019239;28;20304;-33
2022/12/07 04:38:49;;;;;;;9.45;4.95;;;2.60;99.90;;;;;;5003111;28;20729;-34
2022/12/07 04:41:15;;;;;;;8.60;4.93;;;2.60;99.90;;;;;;5004678;28;20364;-34
2022/12/07 04:43:41;;;;;;;7.95;4.55;;;2.50;99.90;;;;;;5003512;28;20034;-35
2022/12/07 04:46:06;;;;;;;7.75;4.53;;;2.60;99.90;;;;;;5002435;28;20038;-34
2022/12/07 04:48:32;;;;;;;8.68;4.75;;;2.60;99.90;;;;;;5003973;28;20022;-35
2022/12/07 04:50:58;;;;;;;7.45;5.03;;;2.60;99.90;;;;;;5003806;28;20109;-34
2022/12/07 04:53:23;;;;;;;7.93;4.88;;;2.60;99.90;;;;;;5002172;28;20454;-35
2022/12/07 04:55:49;;;;;;;8.52;5.47;;;2.60;99.90;;;;;;5005832;28;20054;-33
2022/12/07 04:58:15;;;;;;;7.88;4.85;;;2.50;99.90;;;;;;5013413;28;20069;-34
2022/12/07 05:00:40;;;;;;;7.93;4.95;;;2.60;99.90;;;;;;5006805;28;20088;-33
2022/12/07 05:03:06;;;;;;;6.45;4.63;;;2.60;99.90;;;;;;5006705;28;20213;-35
2022/12/07 05:05:32;;;;;;;6.05;4.65;;;2.60;99.90;;;;;;5001199;28;20109;-31
2022/12/07 05:07:57;;;;;;;6.57;4.80;;;2.60;99.90;;;;;;5006098;28;20121;-34
2022/12/07 05:10:23;;;;;;;8.38;4.90;;;2.70;99.90;;;;;;5006696;28;20084;-34
2022/12/07 05:12:49;;;;;;;6.60;4.78;;;2.70;99.90;;;;;;5001938;28;20029;-33
2022/12/07 05:15:15;;;;;;;7.05;4.65;;;2.60;99.90;;;;;;5003857;28;20022;-33
2022/12/07 05:17:41;;;;;;;8.82;4.65;;;2.60;99.90;;;;;;5006450;28;20057;-34
2022/12/07 05:20:08;;;;;;;7.88;5.05;;;2.60;99.90;;;;;;5003897;28;20068;-32
2022/12/07 05:22:33;;;;;;;9.32;5.78;;;2.60;99.90;;;;;;5003022;28;20026;-33
2022/12/07 05:24:59;;;;;;;7.28;4.10;;;2.60;99.90;;;;;;5002509;28;20057;-32
2022/12/07 05:27:24;;;;;;;5.88;5.05;;;2.40;99.90;;;;;;5003623;28;20026;-33
2022/12/07 05:29:51;;;;;;;9.25;5.55;;;2.40;99.90;;;;;;5004816;28;20033;-34
2022/12/07 05:32:17;;;;;;;5.47;3.88;;;2.40;99.90;;;;;;5005209;28;20096;-32
2022/12/07 05:34:42;;;;;;;6.28;4.47;;;2.40;99.90;;;;;;5003050;28;20030;-34
2022/12/07 05:37:08;;;;;;;9.48;5.70;;;2.30;99.90;;;;;;5009526;28;20387;-34
2022/12/07 05:39:34;;;;;;;5.60;4.43;;;2.30;99.90;;;;;;5005835;28;20029;-33
2022/12/07 05:42:11;;;;;;;5.00;3.78;;;2.30;99.90;;;;;;5005465;28;20026;-33
2022/12/07 05:44:41;;;;;;;10.35;6.07;;;2.30;99.90;;;;;;5007605;28;20551;-34
2022/12/07 05:47:07;;;;;;;10.38;5.30;;;2.30;99.90;;;;;;5004700;28;20670;-34
2022/12/07 05:49:33;;;;;;;8.43;5.57;;;2.30;99.90;;;;;;5008053;28;20113;-34
2022/12/07 05:51:58;;;;;;;10.32;5.57;;;2.30;99.90;;;;;;5007464;28;20030;-34
2022/12/07 05:54:24;;;;;;;9.00;5.85;;;2.20;99.90;;;;;;5007718;28;20034;-33
2022/12/07 05:56:49;;;;;;;6.32;4.28;;;2.30;99.90;;;;;;5006835;28;20671;-31
2022/12/07 05:59:24;;;;;;;6.20;4.82;;;2.20;99.90;;;;;;5005684;28;20037;-33
2022/12/07 06:01:58;;;;;;;5.53;3.92;;;2.20;99.90;;;;;;5000816;28;20467;-34
2022/12/07 06:04:26;;;;;;;7.97;6.25;;;2.20;99.90;;;;;;5002877;28;20594;-33
2022/12/07 06:06:52;;;;;;;8.30;5.75;;;2.20;99.90;;;;;;5003018;28;20117;-32
2022/12/07 06:09:19;;;;;;;8.65;5.95;;;2.20;99.90;;;;;;5002052;28;20052;-34
2022/12/07 06:14:30;;;;;;;7.32;6.03;;;2.20;99.90;;;;;;5006366;28;20121;-33
2022/12/07 06:16:55;;;;;;;7.03;5.03;;;2.10;99.90;;;;;;5007701;28;20112;-32
2022/12/07 06:19:21;;;;;;;9.88;5.13;;;2.00;99.90;;;;;;5002883;28;20029;-36
2022/12/07 06:21:47;;;;;;;6.53;4.95;;;2.00;99.90;;;;;;5008771;28;20833;-32
2022/12/07 06:24:14;;;;;;;10.05;6.15;;;1.90;99.90;;;;;;5008377;28;20434;-33
2022/12/07 06:26:40;;;;;;;9.13;4.65;;;1.90;99.90;;;;;;5004195;28;20037;-30
2022/12/07 06:29:06;;;;;;;8.10;4.80;;;1.80;99.90;;;;;;5009773;28;20648;-34
2022/12/07 06:31:32;;;;;;;9.45;5.53;;;1.80;99.90;;;;;;5007325;28;20437;-31
2022/12/07 06:34:03;;;;;;;6.57;4.25;;;1.80;99.90;;;;;;5006080;28;20036;-34
2022/12/07 06:36:29;;;;;;;8.38;4.65;;;1.70;99.90;;;;;;5005716;28;20503;-30
2022/12/07 06:38:55;;;;;;;11.27;6.68;;;1.70;99.90;;;;;;5004650;28;20029;-32
2022/12/07 06:41:21;;;;;;;8.65;4.88;;;1.70;99.90;;;;;;5008324;28;20038;-34
2022/12/07 06:43:47;;;;;;;7.00;5.15;;;1.70;99.90;;;;;;5005760;28;20041;-34
2022/12/07 06:46:14;;;;;;;11.90;6.65;;;1.70;99.90;;;;;;5007740;28;20033;-31
2022/12/07 06:48:40;;;;;;;10.23;5.78;;;1.70;99.90;;;;;;5012709;28;20037;-34
2022/12/07 06:51:05;;;;;;;10.45;5.13;;;1.70;99.90;;;;;;5004398;28;20117;-33
2022/12/07 06:53:31;;;;;;;10.05;6.90;;;1.70;99.90;;;;;;5004895;28;20109;-34
2022/12/07 06:55:56;;;;;;;11.75;6.18;;;1.70;99.90;;;;;;5002597;28;20026;-33
2022/12/07 06:58:22;;;;;;;10.18;5.95;;;1.70;99.90;;;;;;5003419;28;20427;-31
2022/12/07 07:00:49;;;;;;;10.68;5.82;;;1.70;99.90;;;;;;5004594;28;20034;-32
2022/12/07 07:03:15;;;;;;;10.30;6.65;;;1.70;99.90;;;;;;4998538;28;20028;-34
2022/12/07 07:05:41;;;;;;;9.45;5.25;;;1.70;99.90;;;;;;5005196;28;20045;-33
2022/12/07 07:08:07;;;;;;;8.55;5.57;;;1.60;99.90;;;;;;5004460;28;20053;-32
2022/12/07 07:10:33;;;;;;;8.57;6.03;;;1.60;99.90;;;;;;5005966;28;20040;-33
2022/12/07 07:12:58;;;;;;;12.10;6.63;;;1.60;99.90;;;;;;5020161;28;20029;-34
2022/12/07 07:15:24;;;;;;;9.25;5.78;;;1.50;99.90;;;;;;5004099;28;20450;-30
2022/12/07 07:17:50;;;;;;;11.73;6.45;;;1.50;99.90;;;;;;5005625;28;20345;-34
2022/12/07 07:20:16;;;;;;;6.95;5.35;;;1.50;99.90;;;;;;5002808;28;20495;-34
2022/12/07 07:22:41;;;;;;;10.23;6.68;;;1.40;99.90;;;;;;5003551;28;20105;-33
2022/12/07 07:25:07;;;;;;;14.48;7.45;;;1.40;99.90;;;;;;5003835;28;20394;-34
2022/12/07 07:27:33;;;;;;;10.77;6.50;;;1.40;99.90;;;;;;5000806;28;20045;-35
2022/12/07 07:29:58;;;;;;;4.05;3.70;;;1.30;99.90;;;;;;5005144;28;20030;-35
2022/12/07 07:32:24;;;;;;;4.97;4.13;;;1.20;99.90;;;;;;5003517;28;20061;-32
2022/12/07 07:34:49;;;;;;;8.68;5.38;;;1.00;99.90;;;;;;5004601;28;20470;-34
2022/12/07 07:37:15;;;;;;;5.38;4.10;;;0.90;99.90;;;;;;5004056;28;20442;-31
2022/12/07 07:39:41;;;;;;;9.27;5.43;;;0.80;99.90;;;;;;5008226;28;20038;-33
2022/12/07 07:42:07;;;;;;;6.93;5.40;;;0.80;99.90;;;;;;5004188;28;20066;-32
2022/12/07 07:44:33;;;;;;;9.13;5.43;;;0.80;99.90;;;;;;5002294;28;20030;-34
2022/12/07 07:46:59;;;;;;;11.10;6.80;;;0.80;99.90;;;;;;5005687;28;20022;-34
2022/12/07 07:49:25;;;;;;;8.13;6.13;;;0.80;99.90;;;;;;5005744;28;20032;-33
2022/12/07 07:51:51;;;;;;;10.68;6.97;;;0.90;99.90;;;;;;5004670;28;20022;-33
2022/12/07 07:54:17;;;;;;;11.30;6.63;;;1.00;99.90;;;;;;5008044;28;20076;-33
2022/12/07 07:56:42;;;;;;;8.48;5.65;;;1.10;99.90;;;;;;5007316;28;20796;-32
2022/12/07 07:59:08;;;;;;;10.15;5.88;;;1.10;99.90;;;;;;5007110;28;20045;-31
2022/12/07 08:01:34;;;;;;;6.90;5.72;;;1.20;99.90;;;;;;5004788;28;20576;-34
2022/12/07 08:04:00;;;;;;;10.85;6.60;;;1.10;99.90;;;;;;5001042;28;20092;-32
2022/12/07 08:06:25;;;;;;;6.95;5.00;;;1.10;99.90;;;;;;5001081;28;22438;-31
2022/12/07 08:08:51;;;;;;;6.05;4.38;;;1.20;99.90;;;;;;5006579;28;20038;-34
2022/12/07 08:11:17;;;;;;;9.48;5.93;;;1.20;99.90;;;;;;5001293;28;20112;-30
2022/12/07 08:13:48;;;;;;;15.27;7.75;;;1.20;99.90;;;;;;5008280;28;20052;-34
2022/12/07 08:16:15;;;;;;;11.38;7.68;;;1.20;99.90;;;;;;5004654;28;20119;-32
2022/12/07 08:18:41;;;;;;;13.60;6.50;;;1.20;99.90;;;;;;5005956;28;20026;-33
2022/12/07 08:21:09;;;;;;;10.43;6.28;;;1.20;99.90;;;;;;5005113;28;20033;-33
2022/12/07 08:23:34;;;;;;;10.43;6.75;;;1.30;99.90;;;;;;5007298;28;20399;-33
2022/12/07 08:26:01;;;;;;;7.03;3.65;;;1.20;99.90;;;;;;5003043;28;20041;-29
2022/12/07 08:28:28;;;;;;;10.73;6.30;;;1.10;99.90;;;;;;5006258;28;20064;-34
2022/12/07 08:31:00;;;;;;;9.30;4.57;;;1.00;99.90;;;;;;5002811;28;20030;-34
2022/12/07 08:33:25;;;;;;;12.98;6.68;;;1.10;99.90;;;;;;5005801;28;20030;-33
2022/12/07 08:35:51;;;;;;;10.43;6.95;;;1.10;99.90;;;;;;5004872;28;20079;-34
2022/12/07 08:38:17;;;;;;;7.05;5.50;;;1.20;99.90;;;;;;5004361;28;20137;-35
2022/12/07 08:40:42;;;;;;;7.45;5.78;;;1.30;99.90;;;;;;5005859;28;20804;-34
2022/12/07 08:43:08;;;;;;;13.25;7.95;;;1.30;99.90;;;;;;5002031;28;20029;-33
2022/12/07 08:45:35;;;;;;;11.20;6.90;;;1.40;99.90;;;;;;5003135;28;20026;-34
2022/12/07 08:48:10;;;;;;;11.82;7.20;;;1.50;99.90;;;;;;5006875;28;20037;-35
2022/12/07 08:50:37;;;;;;;11.80;6.57;;;1.60;99.90;;;;;;4999806;28;20494;-33
2022/12/07 08:53:05;;;;;;;11.90;6.45;;;1.60;99.90;;;;;;5002092;28;20075;-32
2022/12/07 08:55:31;;;;;;;7.15;4.63;;;1.70;99.90;;;;;;5001217;28;20499;-32
2022/12/07 08:58:02;;;;;;;14.75;8.55;;;1.70;99.90;;;;;;5004170;28;20518;-33
2022/12/07 09:00:27;;;;;;;14.40;7.65;;;1.80;99.90;;;;;;5017236;28;20040;-34
2022/12/07 09:02:54;;;;;;;11.20;6.85;;;1.80;99.90;;;;;;5000919;28;20791;-34
2022/12/07 09:05:20;;;;;;;2.53;2.20;;;1.90;99.90;;;;;;5002420;28;20072;-32
2022/12/07 09:07:51;;;;;;;10.63;6.18;;;2.00;99.90;;;;;;5000043;28;20050;-32
2022/12/07 09:10:17;;;;;;;10.57;7.00;;;2.10;99.90;;;;;;5003723;28;20038;-33
2022/12/07 09:12:43;;;;;;;12.30;7.60;;;2.10;99.90;;;;;;5006611;28;20479;-34
2022/12/07 09:15:09;;;;;;;15.25;8.02;;;2.20;99.90;;;;;;5000058;28;20045;-35
2022/12/07 09:17:35;;;;;;;13.90;7.13;;;2.20;99.90;;;;;;5002677;28;20200;-32
2022/12/07 09:20:01;;;;;;;12.65;7.82;;;2.30;99.90;;;;;;4997358;28;20034;-34
2022/12/07 09:22:31;;;;;;;12.70;6.78;;;2.40;99.90;;;;;;4998909;28;20121;-32
2022/12/07 09:25:00;;;;;;;15.88;7.30;;;2.50;99.90;;;;;;5006141;28;20041;-33
2022/12/07 09:27:26;;;;;;;10.85;6.18;;;2.60;99.90;;;;;;5000448;28;20491;-33
2022/12/07 09:29:52;;;;;;;5.80;4.53;;;2.70;99.90;;;;;;5006665;28;20034;-34
2022/12/07 09:32:18;;;;;;;6.70;5.22;;;2.80;99.90;;;;;;5005024;28;20080;-31
2022/12/07 09:34:43;;;;;;;5.82;3.78;;;3.00;99.90;;;;;;5003328;28;20030;-33
2022/12/07 09:37:09;;;;;;;7.10;4.68;;;3.00;99.90;;;;;;5002168;28;20030;-33
2022/12/07 09:39:38;;;;;;;9.02;5.53;;;3.00;99.90;;;;;;5006292;28;20688;-32
2022/12/07 09:42:04;;;;;;;5.18;4.68;;;3.10;99.90;;;;;;4999232;28;20030;-34
2022/12/07 09:44:31;;;;;;;9.00;5.63;;;3.30;99.90;;;;;;5006420;28;20427;-33
2022/12/07 09:46:57;;;;;;;6.70;3.75;;;3.40;99.90;;;;;;5002054;28;20570;-34
2022/12/07 09:49:25;;;;;;;6.72;4.95;;;3.50;99.90;;;;;;5006583;28;20475;-34
2022/12/07 09:52:20;;;;;;;4.60;4.18;;;3.60;99.90;;;;;;5001382;28;20076;-35
2022/12/07 09:54:48;;;;;;;11.02;6.25;;;3.60;99.90;;;;;;5001926;28;20030;-32
2022/12/07 09:57:14;;;;;;;1.70;1.63;;;3.70;99.90;;;;;;5004150;28;20026;-33
2022/12/07 09:59:40;;;;;;;5.55;3.97;;;3.80;99.90;;;;;;5003304;28;20117;-34
2022/12/07 10:02:32;;;;;;;13.52;7.70;;;3.70;99.90;;;;;;5004420;28;20471;-33
2022/12/07 10:04:58;;;;;;;12.52;7.13;;;3.80;99.90;;;;;;4996924;28;20034;-34
2022/12/07 10:07:24;;;;;;;4.40;3.70;;;3.80;99.90;;;;;;5003842;28;20132;-33
2022/12/07 10:09:50;;;;;;;8.07;4.85;;;3.90;99.90;;;;;;4998401;28;20770;-34
2022/12/07 10:12:16;;;;;;;8.00;4.90;;;3.80;99.90;;;;;;5002738;28;20060;-31
2022/12/07 10:14:58;;;;;;;18.10;14.25;;;3.80;99.90;;;;;;5002983;28;20462;-35
2022/12/07 10:17:46;;;;;;;6.80;3.65;;;3.80;99.90;;;;;;5003149;28;20061;-35
2022/12/07 10:20:15;;;;;;;5.93;4.03;;;3.90;99.90;;;;;;5006053;28;20026;-33
2022/12/07 10:22:57;;;;;;;;;;;3.80;99.90;;;;;;5004358;28;20034;-35
2022/12/07 10:25:44;;;;;;;6.47;4.57;;;3.80;99.90;;;;;;5006659;28;19924;-31
2022/12/07 10:28:12;;;;;;;9.80;5.30;;;3.90;99.90;;;;;;5007370;28;20026;-32
2022/12/07 10:30:47;;;;;;;7.95;4.90;;;3.90;99.90;;;;;;5009250;28;20530;-35
2022/12/07 10:33:31;;;;;;;4.80;3.03;;;4.00;99.90;;;;;;5003473;28;20476;-33
2022/12/07 10:35:57;;;;;;;8.25;4.18;;;4.10;99.90;;;;;;5008150;28;20025;-34
2022/12/07 10:38:26;;;;;;;7.82;5.28;;;4.10;99.90;;;;;;5003018;28;20033;-34
2022/12/07 10:41:06;;;;;;;7.38;4.40;;;4.10;99.90;;;;;;5008494;28;20042;-35
2022/12/07 10:43:32;;;;;;;8.15;4.72;;;4.10;99.90;;;;;;5003891;28;20116;-35
2022/12/07 10:46:01;;;;;;;6.82;3.70;;;4.00;99.90;;;;;;5009661;28;20117;-32
2022/12/07 10:48:46;;;;;;;5.70;3.03;;;3.90;99.90;;;;;;5006486;28;20104;-35
2022/12/07 10:51:22;;;;;;;8.85;5.15;;;3.90;99.90;;;;;;4985935;28;20534;-36
2022/12/07 10:54:19;;;;;;;9.77;5.72;;;3.90;99.90;;;;;;5002765;28;20134;-36
2022/12/07 10:57:02;;;;;;;7.97;5.07;;;4.00;99.90;;;;;;5002638;28;20546;-33
2022/12/07 10:59:50;;;;;;;8.90;5.40;;;4.00;99.90;;;;;;5005538;28;20582;-32
2022/12/07 11:02:30;;;;;;;7.65;4.53;;;4.10;99.90;;;;;;5004643;28;20426;-35
2022/12/07 11:05:09;;;;;;;11.18;5.25;;;4.10;99.90;;;;;;5007397;28;20077;-33
2022/12/07 11:08:23;;;;;;;7.65;4.53;;;4.10;99.90;;;;;;5000032;28;20073;-34
2022/12/07 11:10:55;;;;;;;5.72;3.83;;;4.10;99.90;;;;;;4999261;28;20108;-34
2022/12/07 11:13:48;;;;;;;9.25;4.53;;;4.10;99.90;;;;;;5004946;28;20756;-35
2022/12/07 11:16:24;;;;;;;6.60;4.05;;;4.10;99.90;;;;;;5004114;28;20116;-33
2022/12/07 11:19:14;;;;;;;2.78;2.03;;;4.10;99.90;;;;;;5007715;28;20026;-34
2022/12/07 11:22:14;;;;;;;3.38;2.60;;;4.00;99.90;;;;;;5004197;28;20487;-34
2022/12/07 11:24:57;;;;;;;2.08;1.95;;;4.10;99.90;;;;;;5003010;28;20033;-34
2022/12/07 11:27:27;;;;;;;9.05;5.03;;;4.10;99.90;;;;;;5003998;28;20077;-34
2022/12/07 11:29:56;;;;;;;2.90;2.05;;;4.00;99.90;;;;;;5017824;28;20031;-33
2022/12/07 11:32:40;;;;;;;;;;;4.10;99.90;;;;;;5006572;28;20038;-34
2022/12/07 11:35:17;;;;;;;6.80;3.78;;;4.00;99.90;;;;;;5000166;28;19910;-32
2022/12/07 11:37:45;;;;;;;4.30;3.13;;;4.00;99.90;;;;;;5007833;28;20137;-31
2022/12/07 11:40:14;;;;;;;2.30;2.13;;;4.00;99.90;;;;;;5001944;28;20487;-34
2022/12/07 11:42:46;;;;;;;8.20;4.78;;;4.00;99.90;;;;;;5005354;28;20033;-39
2022/12/07 11:45:30;;;;;;;8.07;4.57;;;4.00;99.90;;;;;;5001954;28;20033;-35
2022/12/07 11:47:56;;;;;;;7.05;4.47;;;4.10;99.90;;;;;;5005398;28;20056;-33
2022/12/07 11:50:27;;;;;;;4.22;3.20;;;4.10;99.90;;;;;;5007151;28;20042;-34
2022/12/07 11:53:08;;;;;;;3.67;2.75;;;4.10;99.90;;;;;;5001721;28;20517;-34
2022/12/07 11:55:52;;;;;;;4.85;3.33;;;4.10;99.90;;;;;;5005972;28;20026;-35
2022/12/07 11:58:27;;;;;;;7.47;3.97;;;4.10;99.90;;;;;;5000723;28;20037;-33
2022/12/07 12:01:06;;;;;;;5.57;3.60;;;4.10;99.90;;;;;;5015643;28;20026;-34
2022/12/07 12:03:36;;;;;;;6.07;3.95;;;4.10;99.90;;;;;;5006832;28;20045;-34
2022/12/07 12:06:02;;;;;;;4.20;2.63;;;4.10;99.90;;;;;;5004365;28;20106;-34
2022/12/07 12:08:49;;;;;;;10.57;4.60;;;4.10;99.90;;;;;;5000677;28;20511;-33
2022/12/07 12:11:53;;;;;;;4.63;2.67;;;4.10;99.90;;;;;;5002774;28;20041;-34
2022/12/07 12:14:37;;;;;;;5.18;2.67;;;4.10;99.90;;;;;;5003427;28;20109;-33
2022/12/07 12:17:15;;;;;;;4.45;2.80;;;4.10;99.90;;;;;;5004057;28;20030;-34
2022/12/07 12:20:06;;;;;;;5.80;3.70;;;4.10;99.90;;;;;;5004700;28;20153;-34
2022/12/07 12:22:46;;;;;;;5.53;3.92;;;4.20;99.90;;;;;;5001626;28;20283;-34
2022/12/07 12:25:28;;;;;;;3.63;3.33;;;4.10;99.90;;;;;;5005633;28;20104;-40
2022/12/07 12:27:57;;;;;;;5.35;2.70;;;4.10;99.90;;;;;;5004830;28;20475;-37
2022/12/07 12:30:33;;;;;;;5.35;3.10;;;4.10;99.90;;;;;;5019582;28;20103;-33
2022/12/07 12:33:28;;;;;;;6.68;2.88;;;4.10;99.90;;;;;;5002711;28;20529;-35
2022/12/07 12:36:15;;;;;;;7.32;3.88;;;4.10;99.90;;;;;;5003752;28;20144;-35
2022/12/07 12:38:58;;;;;;;3.28;2.58;;;4.10;99.90;;;;;;5003432;28;20030;-33
2022/12/07 12:44:19;;;;;;;6.95;3.72;;;4.10;99.90;;;;;;5001160;28;20073;-35
2022/12/07 12:46:48;;;;;;;5.82;3.33;;;4.10;99.90;;;;;;5005621;28;20470;-33
2022/12/07 12:49:20;;;;;;;5.47;3.75;;;4.20;99.90;;;;;;5004976;28;21699;-33
2022/12/07 12:52:30;;;;;;;5.18;3.70;;;4.20;99.90;;;;;;5001648;28;20085;-35
2022/12/07 12:55:10;;;;;;;5.35;3.65;;;4.20;99.90;;;;;;5003094;28;20033;-34
2022/12/07 12:57:37;;;;;;;7.85;3.72;;;4.30;99.90;;;;;;5005031;28;20068;-35
2022/12/07 13:00:21;;;;;;;7.35;3.83;;;4.20;99.90;;;;;;5017904;28;20124;-34
2022/12/07 13:02:53;;;;;;;1.45;1.35;;;4.30;99.90;;;;;;5003778;28;20084;-34
2022/12/07 13:05:27;;;;;;;6.78;3.70;;;4.20;99.90;;;;;;5003611;28;20044;-35
2022/12/07 13:08:13;;;;;;;7.75;3.70;;;4.20;99.90;;;;;;5001668;28;20502;-33
2022/12/07 13:10:41;;;;;;;7.00;3.75;;;4.20;99.90;;;;;;5001976;28;20034;-35
2022/12/07 13:13:11;;;;;;;4.30;2.83;;;4.20;99.90;;;;;;5006603;28;20145;-36
2022/12/07 13:16:08;;;;;;;5.90;3.35;;;4.10;99.90;;;;;;5003711;28;20105;-34
2022/12/07 13:18:34;;;;;;;1.75;1.40;;;4.10;99.90;;;;;;4990297;28;20103;-34
2022/12/07 13:21:08;;;;;;;7.03;4.00;;;4.10;99.90;;;;;;5002701;28;20030;-35